sensor_id;sensor_type;location;lat;lon;timestamp;P1;durP1;ratioP1;P2;durP2;ratioP2
485;SDS011;229;48.734;9.340;2022-11-20T00:01:28;8.02;;;6.72;;
485;SDS011;229;48.734;9.340;2022-11-20T00:03:56;11.25;;;7.05;;
485;SDS011;229;48.734;9.340;2022-11-20T00:06:24;8.90;;;6.47;;
485;SDS011;229;48.734;9.340;2022-11-20T00:08:53;7.28;;;6.45;;
485;SDS011;229;48.734;9.340;2022-11-20T00:11:22;7.50;;;6.47;;
485;SDS011;229;48.734;9.340;2022-11-20T00:13:50;9.52;;;7.50;;
485;SDS011;229;48.734;9.340;2022-11-20T00:16:19;8.60;;;6.97;;
485;SDS011;229;48.734;9.340;2022-11-20T00:18:46;8.73;;;7.20;;
485;SDS011;229;48.734;9.340;2022-11-20T00:21:14;7.03;;;6.38;;
485;SDS011;229;48.734;9.340;2022-11-20T00:23:42;8.43;;;6.30;;
485;SDS011;229;48.734;9.340;2022-11-20T00:26:11;10.82;;;6.72;;
485;SDS011;229;48.734;9.340;2022-11-20T00:28:39;9.88;;;6.60;;
485;SDS011;229;48.734;9.340;2022-11-20T00:31:07;9.85;;;6.55;;
485;SDS011;229;48.734;9.340;2022-11-20T00:33:35;11.00;;;7.10;;
485;SDS011;229;48.734;9.340;2022-11-20T00:36:03;9.45;;;6.85;;
485;SDS011;229;48.734;9.340;2022-11-20T00:38:31;17.35;;;6.30;;
485;SDS011;229;48.734;9.340;2022-11-20T00:40:58;8.52;;;5.95;;
485;SDS011;229;48.734;9.340;2022-11-20T00:43:26;7.05;;;6.30;;
485;SDS011;229;48.734;9.340;2022-11-20T00:45:57;7.15;;;5.80;;
485;SDS011;229;48.734;9.340;2022-11-20T00:48:24;8.35;;;6.68;;
485;SDS011;229;48.734;9.340;2022-11-20T00:50:52;7.75;;;6.75;;
485;SDS011;229;48.734;9.340;2022-11-20T00:53:19;8.00;;;5.95;;
485;SDS011;229;48.734;9.340;2022-11-20T00:55:53;7.40;;;5.57;;
485;SDS011;229;48.734;9.340;2022-11-20T00:58:20;9.77;;;6.07;;
485;SDS011;229;48.734;9.340;2022-11-20T01:00:47;6.95;;;4.90;;
485;SDS011;229;48.734;9.340;2022-11-20T01:03:17;6.88;;;5.45;;
485;SDS011;229;48.734;9.340;2022-11-20T01:05:44;5.60;;;5.30;;
485;SDS011;229;48.734;9.340;2022-11-20T01:08:11;6.00;;;5.10;;
485;SDS011;229;48.734;9.340;2022-11-20T01:10:38;8.13;;;6.68;;
485;SDS011;229;48.734;9.340;2022-11-20T01:13:05;7.63;;;5.82;;
485;SDS011;229;48.734;9.340;2022-11-20T01:15:50;6.40;;;5.65;;
485;SDS011;229;48.734;9.340;2022-11-20T01:18:19;7.05;;;6.35;;
485;SDS011;229;48.734;9.340;2022-11-20T01:20:46;7.38;;;5.32;;
485;SDS011;229;48.734;9.340;2022-11-20T01:23:13;7.75;;;5.68;;
485;SDS011;229;48.734;9.340;2022-11-20T01:25:40;6.90;;;5.63;;
485;SDS011;229;48.734;9.340;2022-11-20T01:28:07;6.60;;;5.75;;
485;SDS011;229;48.734;9.340;2022-11-20T01:30:35;6.55;;;5.40;;
485;SDS011;229;48.734;9.340;2022-11-20T01:33:02;10.07;;;6.68;;
485;SDS011;229;48.734;9.340;2022-11-20T01:35:30;5.30;;;4.75;;
485;SDS011;229;48.734;9.340;2022-11-20T01:37:57;6.45;;;4.80;;
485;SDS011;229;48.734;9.340;2022-11-20T01:40:25;5.88;;;4.43;;
485;SDS011;229;48.734;9.340;2022-11-20T01:42:55;5.50;;;4.43;;
485;SDS011;229;48.734;9.340;2022-11-20T01:48:34;6.10;;;4.50;;
485;SDS011;229;48.734;9.340;2022-11-20T01:51:04;6.50;;;4.70;;
485;SDS011;229;48.734;9.340;2022-11-20T01:53:33;6.63;;;4.43;;
485;SDS011;229;48.734;9.340;2022-11-20T01:56:02;5.60;;;4.90;;
485;SDS011;229;48.734;9.340;2022-11-20T01:58:30;6.57;;;4.55;;
485;SDS011;229;48.734;9.340;2022-11-20T02:00:59;7.15;;;4.68;;
485;SDS011;229;48.734;9.340;2022-11-20T02:03:26;6.32;;;4.93;;
485;SDS011;229;48.734;9.340;2022-11-20T02:05:55;6.75;;;4.72;;
485;SDS011;229;48.734;9.340;2022-11-20T02:08:24;5.57;;;4.68;;
485;SDS011;229;48.734;9.340;2022-11-20T02:10:52;6.78;;;5.50;;
485;SDS011;229;48.734;9.340;2022-11-20T02:13:19;6.07;;;4.35;;
485;SDS011;229;48.734;9.340;2022-11-20T02:16:04;6.22;;;5.10;;
485;SDS011;229;48.734;9.340;2022-11-20T02:18:35;5.45;;;4.53;;
485;SDS011;229;48.734;9.340;2022-11-20T02:21:03;10.32;;;4.95;;
485;SDS011;229;48.734;9.340;2022-11-20T02:26:12;4.57;;;4.28;;
485;SDS011;229;48.734;9.340;2022-11-20T02:28:40;5.43;;;4.22;;
485;SDS011;229;48.734;9.340;2022-11-20T02:31:10;5.57;;;4.28;;
485;SDS011;229;48.734;9.340;2022-11-20T02:33:37;7.07;;;4.88;;
485;SDS011;229;48.734;9.340;2022-11-20T02:36:05;6.00;;;4.82;;
485;SDS011;229;48.734;9.340;2022-11-20T02:38:32;6.38;;;4.40;;
485;SDS011;229;48.734;9.340;2022-11-20T02:40:59;6.70;;;4.70;;
485;SDS011;229;48.734;9.340;2022-11-20T02:43:28;4.80;;;3.80;;
485;SDS011;229;48.734;9.340;2022-11-20T02:45:55;7.40;;;4.47;;
485;SDS011;229;48.734;9.340;2022-11-20T02:48:22;6.90;;;4.88;;
485;SDS011;229;48.734;9.340;2022-11-20T02:50:49;6.40;;;4.03;;
485;SDS011;229;48.734;9.340;2022-11-20T02:53:17;6.00;;;4.03;;
485;SDS011;229;48.734;9.340;2022-11-20T02:55:44;5.63;;;4.90;;
485;SDS011;229;48.734;9.340;2022-11-20T02:58:11;7.40;;;4.20;;
485;SDS011;229;48.734;9.340;2022-11-20T03:00:40;9.52;;;5.15;;
485;SDS011;229;48.734;9.340;2022-11-20T03:03:07;6.55;;;5.03;;
485;SDS011;229;48.734;9.340;2022-11-20T03:05:34;6.32;;;4.45;;
485;SDS011;229;48.734;9.340;2022-11-20T03:08:01;4.70;;;4.40;;
485;SDS011;229;48.734;9.340;2022-11-20T03:10:28;6.10;;;4.72;;
485;SDS011;229;48.734;9.340;2022-11-20T03:12:56;8.40;;;5.28;;
485;SDS011;229;48.734;9.340;2022-11-20T03:15:23;7.55;;;4.93;;
485;SDS011;229;48.734;9.340;2022-11-20T03:17:54;6.93;;;4.70;;
485;SDS011;229;48.734;9.340;2022-11-20T03:20:21;5.80;;;4.53;;
485;SDS011;229;48.734;9.340;2022-11-20T03:22:49;6.30;;;4.78;;
485;SDS011;229;48.734;9.340;2022-11-20T03:25:16;5.30;;;4.72;;
485;SDS011;229;48.734;9.340;2022-11-20T03:27:43;5.90;;;4.55;;
485;SDS011;229;48.734;9.340;2022-11-20T03:30:10;6.70;;;5.65;;
485;SDS011;229;48.734;9.340;2022-11-20T03:32:38;5.90;;;5.20;;
485;SDS011;229;48.734;9.340;2022-11-20T03:35:07;6.55;;;5.40;;
485;SDS011;229;48.734;9.340;2022-11-20T03:37:34;8.32;;;5.22;;
485;SDS011;229;48.734;9.340;2022-11-20T03:40:01;6.82;;;5.10;;
485;SDS011;229;48.734;9.340;2022-11-20T03:42:28;9.18;;;5.43;;
485;SDS011;229;48.734;9.340;2022-11-20T03:45:11;5.53;;;4.93;;
485;SDS011;229;48.734;9.340;2022-11-20T03:47:38;6.47;;;4.78;;
485;SDS011;229;48.734;9.340;2022-11-20T03:50:07;5.25;;;4.88;;
485;SDS011;229;48.734;9.340;2022-11-20T03:52:34;5.95;;;4.72;;
485;SDS011;229;48.734;9.340;2022-11-20T03:55:02;6.97;;;5.10;;
485;SDS011;229;48.734;9.340;2022-11-20T03:57:29;8.80;;;5.10;;
485;SDS011;229;48.734;9.340;2022-11-20T03:59:56;6.53;;;4.72;;
485;SDS011;229;48.734;9.340;2022-11-20T04:02:23;6.70;;;5.05;;
485;SDS011;229;48.734;9.340;2022-11-20T04:04:50;5.18;;;4.78;;
485;SDS011;229;48.734;9.340;2022-11-20T04:07:19;5.22;;;4.75;;
485;SDS011;229;48.734;9.340;2022-11-20T04:09:46;7.72;;;5.18;;
485;SDS011;229;48.734;9.340;2022-11-20T04:12:13;5.10;;;4.60;;
485;SDS011;229;48.734;9.340;2022-11-20T04:14:40;5.03;;;4.75;;
485;SDS011;229;48.734;9.340;2022-11-20T04:17:08;4.35;;;4.00;;
485;SDS011;229;48.734;9.340;2022-11-20T04:19:35;7.10;;;4.22;;
485;SDS011;229;48.734;9.340;2022-11-20T04:22:02;4.47;;;4.03;;
485;SDS011;229;48.734;9.340;2022-11-20T04:24:31;3.60;;;3.47;;
485;SDS011;229;48.734;9.340;2022-11-20T04:26:58;4.35;;;4.03;;
485;SDS011;229;48.734;9.340;2022-11-20T04:29:25;4.60;;;4.22;;
485;SDS011;229;48.734;9.340;2022-11-20T04:31:52;5.47;;;3.72;;
485;SDS011;229;48.734;9.340;2022-11-20T04:34:19;6.90;;;3.90;;
485;SDS011;229;48.734;9.340;2022-11-20T04:36:46;4.22;;;3.90;;
485;SDS011;229;48.734;9.340;2022-11-20T04:39:14;3.78;;;3.60;;
485;SDS011;229;48.734;9.340;2022-11-20T04:41:43;3.78;;;3.60;;
485;SDS011;229;48.734;9.340;2022-11-20T04:44:10;7.65;;;4.07;;
485;SDS011;229;48.734;9.340;2022-11-20T04:46:38;4.60;;;3.97;;
485;SDS011;229;48.734;9.340;2022-11-20T04:49:06;4.00;;;3.60;;
485;SDS011;229;48.734;9.340;2022-11-20T04:51:33;4.63;;;3.70;;
485;SDS011;229;48.734;9.340;2022-11-20T04:54:01;6.50;;;4.10;;
485;SDS011;229;48.734;9.340;2022-11-20T04:56:28;8.38;;;4.00;;
485;SDS011;229;48.734;9.340;2022-11-20T04:58:59;3.83;;;3.70;;
485;SDS011;229;48.734;9.340;2022-11-20T05:01:26;6.80;;;4.22;;
485;SDS011;229;48.734;9.340;2022-11-20T05:03:53;6.10;;;4.55;;
485;SDS011;229;48.734;9.340;2022-11-20T05:06:21;5.45;;;4.10;;
485;SDS011;229;48.734;9.340;2022-11-20T05:08:48;4.45;;;3.60;;
485;SDS011;229;48.734;9.340;2022-11-20T05:11:16;5.78;;;3.80;;
485;SDS011;229;48.734;9.340;2022-11-20T05:13:44;4.97;;;3.70;;
485;SDS011;229;48.734;9.340;2022-11-20T05:16:13;4.15;;;3.70;;
485;SDS011;229;48.734;9.340;2022-11-20T05:18:41;3.90;;;3.80;;
485;SDS011;229;48.734;9.340;2022-11-20T05:21:08;3.75;;;3.55;;
485;SDS011;229;48.734;9.340;2022-11-20T05:23:36;6.07;;;3.80;;
485;SDS011;229;48.734;9.340;2022-11-20T05:26:03;5.35;;;4.40;;
485;SDS011;229;48.734;9.340;2022-11-20T05:28:31;4.60;;;3.75;;
485;SDS011;229;48.734;9.340;2022-11-20T05:31:03;3.88;;;3.28;;
485;SDS011;229;48.734;9.340;2022-11-20T05:33:32;4.18;;;3.92;;
485;SDS011;229;48.734;9.340;2022-11-20T05:35:59;5.97;;;3.67;;
485;SDS011;229;48.734;9.340;2022-11-20T05:38:27;4.82;;;3.70;;
485;SDS011;229;48.734;9.340;2022-11-20T05:40:54;5.55;;;3.92;;
485;SDS011;229;48.734;9.340;2022-11-20T05:43:21;5.35;;;3.85;;
485;SDS011;229;48.734;9.340;2022-11-20T05:45:52;6.05;;;3.70;;
485;SDS011;229;48.734;9.340;2022-11-20T05:48:19;5.00;;;3.78;;
485;SDS011;229;48.734;9.340;2022-11-20T05:50:48;4.75;;;3.20;;
485;SDS011;229;48.734;9.340;2022-11-20T05:53:15;4.85;;;3.92;;
485;SDS011;229;48.734;9.340;2022-11-20T05:55:42;6.45;;;3.50;;
485;SDS011;229;48.734;9.340;2022-11-20T05:58:12;3.83;;;3.63;;
485;SDS011;229;48.734;9.340;2022-11-20T06:00:39;8.45;;;4.25;;
485;SDS011;229;48.734;9.340;2022-11-20T06:03:06;6.18;;;3.67;;
485;SDS011;229;48.734;9.340;2022-11-20T06:05:34;4.00;;;3.47;;
485;SDS011;229;48.734;9.340;2022-11-20T06:08:02;4.75;;;3.75;;
485;SDS011;229;48.734;9.340;2022-11-20T06:10:29;4.25;;;3.70;;
485;SDS011;229;48.734;9.340;2022-11-20T06:12:57;3.75;;;3.55;;
485;SDS011;229;48.734;9.340;2022-11-20T06:15:24;4.18;;;3.47;;
485;SDS011;229;48.734;9.340;2022-11-20T06:17:52;4.90;;;4.18;;
485;SDS011;229;48.734;9.340;2022-11-20T06:20:19;3.85;;;3.65;;
485;SDS011;229;48.734;9.340;2022-11-20T06:22:46;4.68;;;3.42;;
485;SDS011;229;48.734;9.340;2022-11-20T06:25:15;4.20;;;3.92;;
485;SDS011;229;48.734;9.340;2022-11-20T06:27:42;7.22;;;3.80;;
485;SDS011;229;48.734;9.340;2022-11-20T06:30:10;5.45;;;4.15;;
485;SDS011;229;48.734;9.340;2022-11-20T06:32:37;3.65;;;3.47;;
485;SDS011;229;48.734;9.340;2022-11-20T06:35:05;4.57;;;3.85;;
485;SDS011;229;48.734;9.340;2022-11-20T06:37:32;4.20;;;3.10;;
485;SDS011;229;48.734;9.340;2022-11-20T06:39:59;8.77;;;3.58;;
485;SDS011;229;48.734;9.340;2022-11-20T06:42:27;4.25;;;4.00;;
485;SDS011;229;48.734;9.340;2022-11-20T06:44:57;4.47;;;3.95;;
485;SDS011;229;48.734;9.340;2022-11-20T06:47:25;5.75;;;3.63;;
485;SDS011;229;48.734;9.340;2022-11-20T06:49:52;5.05;;;4.35;;
485;SDS011;229;48.734;9.340;2022-11-20T06:52:19;4.93;;;3.45;;
485;SDS011;229;48.734;9.340;2022-11-20T06:54:46;6.25;;;3.70;;
485;SDS011;229;48.734;9.340;2022-11-20T06:57:13;4.15;;;3.58;;
485;SDS011;229;48.734;9.340;2022-11-20T06:59:42;5.57;;;4.30;;
485;SDS011;229;48.734;9.340;2022-11-20T07:02:10;5.50;;;3.97;;
485;SDS011;229;48.734;9.340;2022-11-20T07:04:37;4.03;;;3.78;;
485;SDS011;229;48.734;9.340;2022-11-20T07:07:05;4.60;;;3.60;;
485;SDS011;229;48.734;9.340;2022-11-20T07:09:32;4.00;;;3.83;;
485;SDS011;229;48.734;9.340;2022-11-20T07:11:59;4.45;;;3.72;;
485;SDS011;229;48.734;9.340;2022-11-20T07:14:26;4.70;;;4.03;;
485;SDS011;229;48.734;9.340;2022-11-20T07:16:55;7.30;;;3.97;;
485;SDS011;229;48.734;9.340;2022-11-20T07:19:22;4.15;;;3.92;;
485;SDS011;229;48.734;9.340;2022-11-20T07:21:49;4.47;;;3.72;;
485;SDS011;229;48.734;9.340;2022-11-20T07:24:16;4.45;;;3.70;;
485;SDS011;229;48.734;9.340;2022-11-20T07:26:45;4.65;;;3.85;;
485;SDS011;229;48.734;9.340;2022-11-20T07:29:14;4.60;;;4.30;;
485;SDS011;229;48.734;9.340;2022-11-20T07:31:41;4.18;;;3.95;;
485;SDS011;229;48.734;9.340;2022-11-20T07:34:10;5.13;;;3.65;;
485;SDS011;229;48.734;9.340;2022-11-20T07:36:37;3.80;;;3.60;;
485;SDS011;229;48.734;9.340;2022-11-20T07:39:07;7.47;;;5.05;;
485;SDS011;229;48.734;9.340;2022-11-20T07:41:34;5.38;;;3.65;;
485;SDS011;229;48.734;9.340;2022-11-20T07:44:01;4.53;;;3.90;;
485;SDS011;229;48.734;9.340;2022-11-20T07:46:28;4.50;;;3.50;;
485;SDS011;229;48.734;9.340;2022-11-20T07:48:56;4.55;;;3.55;;
485;SDS011;229;48.734;9.340;2022-11-20T07:51:24;4.18;;;3.67;;
485;SDS011;229;48.734;9.340;2022-11-20T07:53:52;3.70;;;3.53;;
485;SDS011;229;48.734;9.340;2022-11-20T07:56:19;3.88;;;3.65;;
485;SDS011;229;48.734;9.340;2022-11-20T07:58:46;4.80;;;3.53;;
485;SDS011;229;48.734;9.340;2022-11-20T08:01:14;4.78;;;3.80;;
485;SDS011;229;48.734;9.340;2022-11-20T08:03:41;3.53;;;3.28;;
485;SDS011;229;48.734;9.340;2022-11-20T08:06:10;5.90;;;3.88;;
485;SDS011;229;48.734;9.340;2022-11-20T08:08:38;3.40;;;3.20;;
485;SDS011;229;48.734;9.340;2022-11-20T08:11:06;4.15;;;3.38;;
485;SDS011;229;48.734;9.340;2022-11-20T08:13:51;6.57;;;3.60;;
485;SDS011;229;48.734;9.340;2022-11-20T08:16:36;4.15;;;3.90;;
485;SDS011;229;48.734;9.340;2022-11-20T08:19:03;5.75;;;4.95;;
485;SDS011;229;48.734;9.340;2022-11-20T08:21:30;6.05;;;4.40;;
485;SDS011;229;48.734;9.340;2022-11-20T08:23:59;3.70;;;3.50;;
485;SDS011;229;48.734;9.340;2022-11-20T08:26:26;4.70;;;3.45;;
485;SDS011;229;48.734;9.340;2022-11-20T08:28:54;6.82;;;3.83;;
485;SDS011;229;48.734;9.340;2022-11-20T08:31:22;5.75;;;3.70;;
485;SDS011;229;48.734;9.340;2022-11-20T08:33:49;4.15;;;3.53;;
485;SDS011;229;48.734;9.340;2022-11-20T08:36:16;3.45;;;3.10;;
485;SDS011;229;48.734;9.340;2022-11-20T08:38:46;3.55;;;3.35;;
485;SDS011;229;48.734;9.340;2022-11-20T08:41:15;4.57;;;3.35;;
485;SDS011;229;48.734;9.340;2022-11-20T08:43:53;3.80;;;3.60;;
485;SDS011;229;48.734;9.340;2022-11-20T08:46:20;5.65;;;3.50;;
485;SDS011;229;48.734;9.340;2022-11-20T08:48:47;3.50;;;3.05;;
485;SDS011;229;48.734;9.340;2022-11-20T08:51:15;6.70;;;3.30;;
485;SDS011;229;48.734;9.340;2022-11-20T08:53:42;4.78;;;3.42;;
485;SDS011;229;48.734;9.340;2022-11-20T08:56:09;3.67;;;3.47;;
485;SDS011;229;48.734;9.340;2022-11-20T08:58:38;3.72;;;3.33;;
485;SDS011;229;48.734;9.340;2022-11-20T09:01:05;3.75;;;3.17;;
485;SDS011;229;48.734;9.340;2022-11-20T09:03:32;3.95;;;3.80;;
485;SDS011;229;48.734;9.340;2022-11-20T09:06:00;3.47;;;3.33;;
485;SDS011;229;48.734;9.340;2022-11-20T09:08:27;4.25;;;3.20;;
485;SDS011;229;48.734;9.340;2022-11-20T09:10:55;3.33;;;3.17;;
485;SDS011;229;48.734;9.340;2022-11-20T09:13:23;3.40;;;3.20;;
485;SDS011;229;48.734;9.340;2022-11-20T09:15:55;4.35;;;3.53;;
485;SDS011;229;48.734;9.340;2022-11-20T09:18:22;6.40;;;3.50;;
485;SDS011;229;48.734;9.340;2022-11-20T09:20:50;3.25;;;3.15;;
485;SDS011;229;48.734;9.340;2022-11-20T09:23:17;4.85;;;3.67;;
485;SDS011;229;48.734;9.340;2022-11-20T09:25:44;3.40;;;3.30;;
485;SDS011;229;48.734;9.340;2022-11-20T09:28:11;3.45;;;3.10;;
485;SDS011;229;48.734;9.340;2022-11-20T09:30:38;5.15;;;3.25;;
485;SDS011;229;48.734;9.340;2022-11-20T09:33:07;3.20;;;3.00;;
485;SDS011;229;48.734;9.340;2022-11-20T09:35:34;6.15;;;3.05;;
485;SDS011;229;48.734;9.340;2022-11-20T09:38:05;6.53;;;3.00;;
485;SDS011;229;48.734;9.340;2022-11-20T09:40:32;3.15;;;2.50;;
485;SDS011;229;48.734;9.340;2022-11-20T09:43:01;3.33;;;3.13;;
485;SDS011;229;48.734;9.340;2022-11-20T09:45:35;2.67;;;2.47;;
485;SDS011;229;48.734;9.340;2022-11-20T09:48:13;4.32;;;2.50;;
485;SDS011;229;48.734;9.340;2022-11-20T09:50:43;2.88;;;2.15;;
485;SDS011;229;48.734;9.340;2022-11-20T09:53:16;4.10;;;2.45;;
485;SDS011;229;48.734;9.340;2022-11-20T09:55:47;2.30;;;2.13;;
485;SDS011;229;48.734;9.340;2022-11-20T09:58:15;2.60;;;1.90;;
485;SDS011;229;48.734;9.340;2022-11-20T10:00:43;2.92;;;2.40;;
485;SDS011;229;48.734;9.340;2022-11-20T10:03:13;5.85;;;4.78;;
485;SDS011;229;48.734;9.340;2022-11-20T10:05:42;2.67;;;2.53;;
485;SDS011;229;48.734;9.340;2022-11-20T10:08:13;2.35;;;1.85;;
485;SDS011;229;48.734;9.340;2022-11-20T10:10:42;1.83;;;1.80;;
485;SDS011;229;48.734;9.340;2022-11-20T10:15:54;2.50;;;2.38;;
485;SDS011;229;48.734;9.340;2022-11-20T10:18:30;1.92;;;1.90;;
485;SDS011;229;48.734;9.340;2022-11-20T10:21:02;2.17;;;1.90;;
485;SDS011;229;48.734;9.340;2022-11-20T10:23:43;2.53;;;2.10;;
485;SDS011;229;48.734;9.340;2022-11-20T10:26:16;2.33;;;2.13;;
485;SDS011;229;48.734;9.340;2022-11-20T10:28:46;2.28;;;2.10;;
485;SDS011;229;48.734;9.340;2022-11-20T10:31:17;2.80;;;2.70;;
485;SDS011;229;48.734;9.340;2022-11-20T10:33:51;3.22;;;2.92;;
485;SDS011;229;48.734;9.340;2022-11-20T10:36:21;4.20;;;3.33;;
485;SDS011;229;48.734;9.340;2022-11-20T10:38:50;3.47;;;3.33;;
485;SDS011;229;48.734;9.340;2022-11-20T10:41:20;3.95;;;2.70;;
485;SDS011;229;48.734;9.340;2022-11-20T10:43:54;2.50;;;2.30;;
485;SDS011;229;48.734;9.340;2022-11-20T10:46:24;2.25;;;2.05;;
485;SDS011;229;48.734;9.340;2022-11-20T10:48:53;2.50;;;2.30;;
485;SDS011;229;48.734;9.340;2022-11-20T10:51:24;2.40;;;2.20;;
485;SDS011;229;48.734;9.340;2022-11-20T10:53:55;2.20;;;2.10;;
485;SDS011;229;48.734;9.340;2022-11-20T10:56:25;2.45;;;2.15;;
485;SDS011;229;48.734;9.340;2022-11-20T10:59:04;2.60;;;2.40;;
485;SDS011;229;48.734;9.340;2022-11-20T11:01:39;2.63;;;1.92;;
485;SDS011;229;48.734;9.340;2022-11-20T11:04:13;4.22;;;1.95;;
485;SDS011;229;48.734;9.340;2022-11-20T11:06:46;3.97;;;2.00;;
485;SDS011;229;48.734;9.340;2022-11-20T11:09:15;2.15;;;1.98;;
485;SDS011;229;48.734;9.340;2022-11-20T11:11:43;2.70;;;2.25;;
485;SDS011;229;48.734;9.340;2022-11-20T11:14:11;2.50;;;2.20;;
485;SDS011;229;48.734;9.340;2022-11-20T11:16:40;2.30;;;2.10;;
485;SDS011;229;48.734;9.340;2022-11-20T11:19:16;1.80;;;1.73;;
485;SDS011;229;48.734;9.340;2022-11-20T11:21:46;2.55;;;2.30;;
485;SDS011;229;48.734;9.340;2022-11-20T11:24:19;2.95;;;1.98;;
485;SDS011;229;48.734;9.340;2022-11-20T11:26:51;1.75;;;1.70;;
485;SDS011;229;48.734;9.340;2022-11-20T11:29:18;2.75;;;2.22;;
485;SDS011;229;48.734;9.340;2022-11-20T11:31:46;2.38;;;2.20;;
485;SDS011;229;48.734;9.340;2022-11-20T11:34:14;2.40;;;2.08;;
485;SDS011;229;48.734;9.340;2022-11-20T11:36:47;3.30;;;2.25;;
485;SDS011;229;48.734;9.340;2022-11-20T11:39:16;4.03;;;2.47;;
485;SDS011;229;48.734;9.340;2022-11-20T11:41:44;2.60;;;2.13;;
485;SDS011;229;48.734;9.340;2022-11-20T11:44:15;3.95;;;2.20;;
485;SDS011;229;48.734;9.340;2022-11-20T11:47:00;3.88;;;2.47;;
485;SDS011;229;48.734;9.340;2022-11-20T11:49:29;3.53;;;2.05;;
485;SDS011;229;48.734;9.340;2022-11-20T11:52:02;3.30;;;2.42;;
485;SDS011;229;48.734;9.340;2022-11-20T11:54:32;3.20;;;1.98;;
485;SDS011;229;48.734;9.340;2022-11-20T11:57:01;3.05;;;2.22;;
485;SDS011;229;48.734;9.340;2022-11-20T11:59:33;2.50;;;2.30;;
485;SDS011;229;48.734;9.340;2022-11-20T12:02:20;2.90;;;2.30;;
485;SDS011;229;48.734;9.340;2022-11-20T12:04:52;4.50;;;2.53;;
485;SDS011;229;48.734;9.340;2022-11-20T12:07:26;4.47;;;2.50;;
485;SDS011;229;48.734;9.340;2022-11-20T12:09:56;7.50;;;4.72;;
485;SDS011;229;48.734;9.340;2022-11-20T12:12:24;3.80;;;3.60;;
485;SDS011;229;48.734;9.340;2022-11-20T12:14:54;4.82;;;2.50;;
485;SDS011;229;48.734;9.340;2022-11-20T12:17:23;4.15;;;2.10;;
485;SDS011;229;48.734;9.340;2022-11-20T12:19:50;3.00;;;2.17;;
485;SDS011;229;48.734;9.340;2022-11-20T12:22:21;4.05;;;3.15;;
485;SDS011;229;48.734;9.340;2022-11-20T12:24:54;2.53;;;1.92;;
485;SDS011;229;48.734;9.340;2022-11-20T12:30:10;3.58;;;2.90;;
485;SDS011;229;48.734;9.340;2022-11-20T12:32:48;2.25;;;2.05;;
485;SDS011;229;48.734;9.340;2022-11-20T12:35:32;3.92;;;2.47;;
485;SDS011;229;48.734;9.340;2022-11-20T12:38:08;3.25;;;2.38;;
485;SDS011;229;48.734;9.340;2022-11-20T12:40:44;3.00;;;2.10;;
485;SDS011;229;48.734;9.340;2022-11-20T12:43:14;2.95;;;2.30;;
485;SDS011;229;48.734;9.340;2022-11-20T12:46:08;3.92;;;2.20;;
485;SDS011;229;48.734;9.340;2022-11-20T12:48:51;4.20;;;2.67;;
485;SDS011;229;48.734;9.340;2022-11-20T12:51:21;3.80;;;2.45;;
485;SDS011;229;48.734;9.340;2022-11-20T12:53:55;2.97;;;2.55;;
485;SDS011;229;48.734;9.340;2022-11-20T12:56:28;3.58;;;2.30;;
485;SDS011;229;48.734;9.340;2022-11-20T12:58:59;4.30;;;2.80;;
485;SDS011;229;48.734;9.340;2022-11-20T13:01:29;2.38;;;2.20;;
485;SDS011;229;48.734;9.340;2022-11-20T13:04:08;4.55;;;2.08;;
485;SDS011;229;48.734;9.340;2022-11-20T13:06:36;2.22;;;2.05;;
485;SDS011;229;48.734;9.340;2022-11-20T13:09:04;3.65;;;1.90;;
485;SDS011;229;48.734;9.340;2022-11-20T13:11:39;3.47;;;2.67;;
485;SDS011;229;48.734;9.340;2022-11-20T13:14:11;4.70;;;3.30;;
485;SDS011;229;48.734;9.340;2022-11-20T13:16:41;14.27;;;6.53;;
485;SDS011;229;48.734;9.340;2022-11-20T13:19:12;2.83;;;2.55;;
485;SDS011;229;48.734;9.340;2022-11-20T13:21:40;2.15;;;2.00;;
485;SDS011;229;48.734;9.340;2022-11-20T13:24:19;2.40;;;2.20;;
485;SDS011;229;48.734;9.340;2022-11-20T13:26:58;4.00;;;2.30;;
485;SDS011;229;48.734;9.340;2022-11-20T13:29:26;5.90;;;2.60;;
485;SDS011;229;48.734;9.340;2022-11-20T13:32:01;2.47;;;2.10;;
485;SDS011;229;48.734;9.340;2022-11-20T13:34:28;3.17;;;2.50;;
485;SDS011;229;48.734;9.340;2022-11-20T13:36:56;3.72;;;2.80;;
485;SDS011;229;48.734;9.340;2022-11-20T13:39:25;2.75;;;2.55;;
485;SDS011;229;48.734;9.340;2022-11-20T13:41:57;2.47;;;2.28;;
485;SDS011;229;48.734;9.340;2022-11-20T13:44:25;3.03;;;2.70;;
485;SDS011;229;48.734;9.340;2022-11-20T13:46:54;3.67;;;2.40;;
485;SDS011;229;48.734;9.340;2022-11-20T13:49:23;4.55;;;3.20;;
485;SDS011;229;48.734;9.340;2022-11-20T13:51:51;3.25;;;2.72;;
485;SDS011;229;48.734;9.340;2022-11-20T13:54:29;3.08;;;2.45;;
485;SDS011;229;48.734;9.340;2022-11-20T13:57:04;2.60;;;2.40;;
485;SDS011;229;48.734;9.340;2022-11-20T13:59:40;3.30;;;2.80;;
485;SDS011;229;48.734;9.340;2022-11-20T14:02:10;3.00;;;2.60;;
485;SDS011;229;48.734;9.340;2022-11-20T14:04:40;4.35;;;3.17;;
485;SDS011;229;48.734;9.340;2022-11-20T14:07:09;4.70;;;4.10;;
485;SDS011;229;48.734;9.340;2022-11-20T14:09:36;3.33;;;3.00;;
485;SDS011;229;48.734;9.340;2022-11-20T14:12:14;5.05;;;3.53;;
485;SDS011;229;48.734;9.340;2022-11-20T14:14:47;4.10;;;3.00;;
485;SDS011;229;48.734;9.340;2022-11-20T14:17:17;6.97;;;3.25;;
485;SDS011;229;48.734;9.340;2022-11-20T14:19:45;3.35;;;3.20;;
485;SDS011;229;48.734;9.340;2022-11-20T14:22:17;3.30;;;3.10;;
485;SDS011;229;48.734;9.340;2022-11-20T14:24:44;3.05;;;2.85;;
485;SDS011;229;48.734;9.340;2022-11-20T14:27:14;3.65;;;3.30;;
485;SDS011;229;48.734;9.340;2022-11-20T14:29:41;3.30;;;3.10;;
485;SDS011;229;48.734;9.340;2022-11-20T14:32:10;4.18;;;3.20;;
485;SDS011;229;48.734;9.340;2022-11-20T14:34:38;6.28;;;3.60;;
485;SDS011;229;48.734;9.340;2022-11-20T14:37:09;3.78;;;3.30;;
485;SDS011;229;48.734;9.340;2022-11-20T14:39:40;7.03;;;3.58;;
485;SDS011;229;48.734;9.340;2022-11-20T14:42:14;6.25;;;4.30;;
485;SDS011;229;48.734;9.340;2022-11-20T14:44:42;4.88;;;4.20;;
485;SDS011;229;48.734;9.340;2022-11-20T14:47:10;3.40;;;3.20;;
485;SDS011;229;48.734;9.340;2022-11-20T14:49:38;4.78;;;3.20;;
485;SDS011;229;48.734;9.340;2022-11-20T14:52:10;3.00;;;2.80;;
485;SDS011;229;48.734;9.340;2022-11-20T14:54:42;4.30;;;3.30;;
485;SDS011;229;48.734;9.340;2022-11-20T14:57:20;3.75;;;3.30;;
485;SDS011;229;48.734;9.340;2022-11-20T14:59:47;4.35;;;3.00;;
485;SDS011;229;48.734;9.340;2022-11-20T15:02:15;3.45;;;3.20;;
485;SDS011;229;48.734;9.340;2022-11-20T15:04:46;3.20;;;3.00;;
485;SDS011;229;48.734;9.340;2022-11-20T15:07:23;3.30;;;3.10;;
485;SDS011;229;48.734;9.340;2022-11-20T15:09:59;7.10;;;5.15;;
485;SDS011;229;48.734;9.340;2022-11-20T15:12:27;6.55;;;3.55;;
485;SDS011;229;48.734;9.340;2022-11-20T15:14:55;3.95;;;3.30;;
485;SDS011;229;48.734;9.340;2022-11-20T15:17:23;6.85;;;3.75;;
485;SDS011;229;48.734;9.340;2022-11-20T15:19:50;5.10;;;3.63;;
485;SDS011;229;48.734;9.340;2022-11-20T15:22:17;5.97;;;3.95;;
485;SDS011;229;48.734;9.340;2022-11-20T15:24:45;5.45;;;3.80;;
485;SDS011;229;48.734;9.340;2022-11-20T15:27:13;7.45;;;4.10;;
485;SDS011;229;48.734;9.340;2022-11-20T15:29:41;3.92;;;3.30;;
485;SDS011;229;48.734;9.340;2022-11-20T15:32:09;4.68;;;4.15;;
485;SDS011;229;48.734;9.340;2022-11-20T15:34:36;5.38;;;3.60;;
485;SDS011;229;48.734;9.340;2022-11-20T15:37:03;11.07;;;10.48;;
485;SDS011;229;48.734;9.340;2022-11-20T15:39:30;3.30;;;3.10;;
485;SDS011;229;48.734;9.340;2022-11-20T15:41:57;3.78;;;3.58;;
485;SDS011;229;48.734;9.340;2022-11-20T15:44:25;4.88;;;3.97;;
485;SDS011;229;48.734;9.340;2022-11-20T15:46:53;4.22;;;3.88;;
485;SDS011;229;48.734;9.340;2022-11-20T15:49:20;3.22;;;3.03;;
485;SDS011;229;48.734;9.340;2022-11-20T15:51:48;3.67;;;3.25;;
485;SDS011;229;48.734;9.340;2022-11-20T15:54:18;3.35;;;3.15;;
485;SDS011;229;48.734;9.340;2022-11-20T15:56:45;3.50;;;3.20;;
485;SDS011;229;48.734;9.340;2022-11-20T15:59:13;3.63;;;3.40;;
485;SDS011;229;48.734;9.340;2022-11-20T16:01:40;4.05;;;3.65;;
485;SDS011;229;48.734;9.340;2022-11-20T16:04:10;5.00;;;4.30;;
485;SDS011;229;48.734;9.340;2022-11-20T16:06:38;6.25;;;4.32;;
485;SDS011;229;48.734;9.340;2022-11-20T16:09:05;3.90;;;3.70;;